Time;durP1;ratioP1;P1;durP2;ratioP2;P2;SDS_P1;SDS_P2;PMS_P1;PMS_P2;Temp;Humidity;BMP_temperature;BMP_pressure;BME280_temperature;BME280_humidity;BME280_pressure;Samples;Min_cycle;Max_cycle;Signal;HPM_P1;HPM_P2
2022/01/24 00:02:19;;;;;;;19.83;11.40;;;8.20;99.90;;;;;;4974747;28;20194;-84
2022/01/24 00:04:48;;;;;;;22.60;12.33;;;8.00;99.90;;;;;;4974825;28;20223;-84
2022/01/24 00:07:17;;;;;;;23.03;12.60;;;8.20;99.90;;;;;;4974556;28;20177;-84
2022/01/24 00:09:44;;;;;;;20.90;11.10;;;8.00;99.90;;;;;;4975938;28;20267;-83
2022/01/24 00:12:18;;;;;;;21.57;11.50;;;8.00;99.90;;;;;;4974522;28;20659;-83
2022/01/24 00:15:13;;;;;;;21.37;11.53;;;8.00;99.90;;;;;;4974335;28;20192;-83
2022/01/24 00:28:10;;;;;;;21.57;11.83;;;8.00;99.90;;;;;;4975503;28;20176;-84
2022/01/24 00:30:38;;;;;;;22.57;12.23;;;7.90;99.90;;;;;;4973720;28;20674;-84
2022/01/24 00:33:03;;;;;;;20.47;12.03;;;8.00;99.90;;;;;;4974004;28;20177;-84
2022/01/24 00:35:29;;;;;;;23.07;12.90;;;7.90;99.90;;;;;;4974082;28;20186;-83
2022/01/24 00:37:59;;;;;;;22.73;12.80;;;7.90;99.90;;;;;;4973362;28;20188;-84
2022/01/24 00:40:27;;;;;;;25.10;13.83;;;8.00;99.90;;;;;;4973837;28;20197;-85
2022/01/24 00:42:56;;;;;;;23.50;13.80;;;8.10;99.90;;;;;;4973494;28;20218;-82
2022/01/24 00:45:48;;;;;;;22.97;13.50;;;8.30;99.90;;;;;;4973753;28;20221;-84
2022/01/24 00:56:11;;;;;;;22.30;12.30;;;8.10;99.90;;;;;;4974691;28;20184;-84
2022/01/24 00:58:38;;;;;;;24.10;13.33;;;8.00;99.90;;;;;;4973662;28;20178;-83
2022/01/24 01:01:04;;;;;;;25.10;13.10;;;7.80;99.90;;;;;;4973677;28;20227;-82
2022/01/24 01:03:31;;;;;;;24.77;13.23;;;8.00;99.90;;;;;;4974221;28;20660;-82
2022/01/24 01:06:07;;;;;;;21.77;12.23;;;8.20;99.90;;;;;;4973392;28;20179;-83
2022/01/24 01:19:38;;;;;;;20.70;11.53;;;8.00;99.90;;;;;;4974909;28;20674;-84
2022/01/24 01:22:04;;;;;;;21.97;11.63;;;8.10;99.90;;;;;;4974477;28;20284;-83
2022/01/24 01:24:34;;;;;;;21.20;11.20;;;7.90;99.90;;;;;;4973274;28;20676;-84
2022/01/24 01:27:06;;;;;;;20.33;11.13;;;7.70;99.90;;;;;;4973093;28;20180;-82
2022/01/24 01:29:46;;;;;;;19.13;10.97;;;7.50;99.90;;;;;;4973280;28;20188;-81
2022/01/24 01:40:20;;;;;;;19.13;10.77;;;7.50;99.90;;;;;;4974332;28;20231;-81
2022/01/24 01:56:04;;;;;;;18.93;10.30;;;7.60;99.90;;;;;;4973982;28;20279;-81
2022/01/24 01:58:30;;;;;;;17.83;10.60;;;7.70;99.90;;;;;;4973026;28;20189;-81
2022/01/24 02:00:59;;;;;;;18.47;10.33;;;7.90;99.90;;;;;;4972846;28;20279;-82
2022/01/24 02:03:27;;;;;;;18.63;10.37;;;7.90;99.90;;;;;;4972697;28;20280;-82
2022/01/24 02:05:53;;;;;;;18.17;10.73;;;7.90;99.90;;;;;;4972921;28;20192;-83
2022/01/24 02:08:23;;;;;;;20.90;10.67;;;8.10;99.90;;;;;;4972451;28;20181;-81
2022/01/24 02:10:49;;;;;;;17.47;9.77;;;8.00;99.90;;;;;;4974584;28;20871;-82
2022/01/24 02:13:15;;;;;;;20.63;11.20;;;7.90;99.90;;;;;;4972767;28;20179;-81
2022/01/24 02:23:42;;;;;;;18.80;10.73;;;7.40;99.90;;;;;;4973696;28;20588;-83
2022/01/24 02:26:14;;;;;;;21.00;11.20;;;7.20;99.90;;;;;;4972885;28;20547;-83
2022/01/24 02:28:57;;;;;;;18.77;10.53;;;7.20;99.90;;;;;;4972863;28;20182;-83
2022/01/24 02:31:39;;;;;;;19.50;10.57;;;7.20;99.90;;;;;;4973845;28;20193;-81
2022/01/24 02:34:20;;;;;;;20.57;11.23;;;7.10;99.90;;;;;;4972672;28;20175;-82
2022/01/24 02:36:46;;;;;;;19.27;11.07;;;7.00;99.90;;;;;;4972650;28;20194;-82
2022/01/24 02:39:59;;;;;;;20.50;11.30;;;7.10;99.90;;;;;;4972546;28;20196;-82
2022/01/24 02:52:59;;;;;;;20.03;10.97;;;7.40;99.90;;;;;;4974448;28;20188;-82
2022/01/24 02:55:26;;;;;;;21.53;11.90;;;7.40;99.90;;;;;;4975874;28;20189;-82
2022/01/24 02:57:53;;;;;;;24.27;11.97;;;7.40;99.90;;;;;;4975885;28;20174;-81
2022/01/24 03:00:19;;;;;;;21.03;11.77;;;7.50;99.90;;;;;;4975918;28;20637;-81
2022/01/24 03:02:45;;;;;;;22.73;11.70;;;7.90;99.90;;;;;;4975870;28;20176;-82
2022/01/24 03:05:12;;;;;;;20.93;11.93;;;7.90;99.90;;;;;;4977089;28;20706;-85
2022/01/24 03:07:37;;;;;;;18.97;10.77;;;7.80;99.90;;;;;;4975482;28;20167;-82
2022/01/24 03:10:12;;;;;;;22.37;13.00;;;7.80;99.90;;;;;;4975837;28;20179;-82
2022/01/24 03:12:42;;;;;;;20.50;12.07;;;7.60;99.90;;;;;;4975761;28;20317;-81
2022/01/24 03:15:08;;;;;;;21.50;12.87;;;7.50;99.90;;;;;;4975720;28;20184;-81
2022/01/24 03:17:34;;;;;;;18.97;11.57;;;7.80;99.90;;;;;;4975118;28;20190;-82
2022/01/24 03:20:00;;;;;;;20.90;12.63;;;7.50;99.90;;;;;;4975828;28;20187;-82
2022/01/24 03:22:27;;;;;;;21.23;11.80;;;7.40;99.90;;;;;;4976413;28;20176;-81
2022/01/24 03:24:53;;;;;;;22.03;12.53;;;7.30;99.90;;;;;;4975499;28;20585;-82
2022/01/24 03:27:18;;;;;;;19.17;12.27;;;7.30;99.90;;;;;;4975323;28;20258;-82
2022/01/24 03:29:45;;;;;;;21.97;12.83;;;7.40;99.90;;;;;;4975415;28;20172;-81
2022/01/24 03:32:12;;;;;;;22.73;12.60;;;7.70;99.90;;;;;;4975278;28;20216;-81
2022/01/24 03:34:40;;;;;;;19.63;12.00;;;7.50;99.90;;;;;;4975355;28;20176;-82
2022/01/24 03:37:07;;;;;;;21.37;12.53;;;7.60;99.90;;;;;;4976331;28;20163;-82
2022/01/24 03:39:34;;;;;;;21.60;11.63;;;7.50;99.90;;;;;;4975255;28;20248;-81
2022/01/24 03:42:01;;;;;;;21.70;12.43;;;7.50;99.90;;;;;;4975052;28;20184;-82
2022/01/24 03:44:28;;;;;;;21.10;13.23;;;7.50;99.90;;;;;;4974864;28;20311;-82
2022/01/24 03:52:48;;;;;;;21.03;12.40;;;7.90;99.90;;;;;;4976274;28;20692;-81
2022/01/24 03:55:15;;;;;;;22.20;12.30;;;8.00;99.90;;;;;;4974778;28;20179;-82
2022/01/24 03:57:42;;;;;;;23.50;12.87;;;7.70;99.90;;;;;;4975101;28;20208;-82
2022/01/24 04:00:09;;;;;;;22.90;12.70;;;7.50;99.90;;;;;;4974816;28;20592;-82
2022/01/24 04:02:36;;;;;;;21.33;12.77;;;7.40;99.90;;;;;;4974723;28;20537;-83
2022/01/24 04:05:03;;;;;;;22.30;13.37;;;7.50;99.90;;;;;;4973667;28;20266;-81
2022/01/24 04:07:31;;;;;;;20.33;12.17;;;7.70;99.90;;;;;;4974665;28;20267;-82
2022/01/24 04:10:01;;;;;;;22.50;12.80;;;7.50;99.90;;;;;;4974735;28;20276;-82
2022/01/24 04:12:27;;;;;;;22.13;12.97;;;7.30;99.90;;;;;;4974607;28;20223;-82
2022/01/24 04:15:07;;;;;;;21.23;12.73;;;7.50;99.90;;;;;;4974535;28;20211;-81
2022/01/24 04:17:45;;;;;;;23.90;13.63;;;7.60;99.90;;;;;;4974540;28;20189;-81
2022/01/24 04:22:59;;;;;;;23.03;13.73;;;7.50;99.90;;;;;;4975822;28;20239;-82
2022/01/24 04:25:25;;;;;;;23.63;13.83;;;7.30;99.90;;;;;;4975334;28;20215;-83
2022/01/24 04:27:54;;;;;;;25.27;14.40;;;7.30;99.90;;;;;;4975524;28;20628;-81
2022/01/24 04:30:21;;;;;;;23.30;13.50;;;7.60;99.90;;;;;;4974100;28;20183;-81
2022/01/24 04:32:48;;;;;;;22.93;13.47;;;7.60;99.90;;;;;;4974076;28;20538;-82
2022/01/24 04:35:14;;;;;;;23.97;13.70;;;7.30;99.90;;;;;;4973736;28;20238;-81
2022/01/24 04:37:41;;;;;;;27.57;14.87;;;7.20;99.90;;;;;;4974202;28;20182;-82
2022/01/24 04:40:07;;;;;;;23.50;13.30;;;7.20;99.90;;;;;;4974260;28;20179;-82
2022/01/24 04:42:43;;;;;;;23.67;13.40;;;7.20;99.90;;;;;;4974221;28;20649;-82
2022/01/24 04:45:33;;;;;;;24.67;13.67;;;7.10;99.90;;;;;;4973801;28;20219;-83
2022/01/24 04:51:09;;;;;;;25.60;13.03;;;7.10;99.90;;;;;;4975306;28;20663;-82
2022/01/24 04:54:26;;;;;;;21.17;12.50;;;7.20;99.90;;;;;;4974399;28;20197;-83
2022/01/24 04:56:18;;;;;;;22.07;12.03;;;7.30;99.90;;;;;;4971730;28;20217;-81
2022/01/24 04:58:45;;;;;;;24.37;12.77;;;7.10;99.90;;;;;;4973914;28;20206;-82
2022/01/24 05:01:13;;;;;;;21.33;13.33;;;6.90;99.90;;;;;;4973717;28;20693;-82
2022/01/24 05:03:38;;;;;;;22.90;12.87;;;6.90;99.90;;;;;;4973278;28;20218;-83
2022/01/24 05:06:04;;;;;;;23.27;12.97;;;6.90;99.90;;;;;;4973398;28;20568;-83
2022/01/24 05:08:30;;;;;;;23.57;13.20;;;6.90;99.90;;;;;;4972110;28;20192;-81
2022/01/24 05:11:09;;;;;;;21.83;12.53;;;6.90;99.90;;;;;;4973369;28;20195;-83
2022/01/24 05:24:22;;;;;;;23.33;12.93;;;6.90;99.90;;;;;;4974829;28;20797;-82
2022/01/24 05:26:47;;;;;;;24.83;13.67;;;6.80;99.90;;;;;;4973091;28;20178;-82
2022/01/24 05:29:13;;;;;;;24.87;13.50;;;6.90;99.90;;;;;;4973073;28;20176;-82
2022/01/24 05:31:40;;;;;;;24.97;12.97;;;6.80;99.90;;;;;;4972678;28;20185;-82
2022/01/24 05:34:05;;;;;;;23.63;13.50;;;6.90;99.90;;;;;;4974419;28;20172;-82
2022/01/24 05:36:32;;;;;;;26.73;13.87;;;6.90;99.90;;;;;;4973200;28;20268;-82
2022/01/24 05:39:00;;;;;;;24.27;12.77;;;7.10;99.90;;;;;;4973132;28;20168;-82
2022/01/24 05:41:26;;;;;;;24.97;13.60;;;7.10;99.90;;;;;;4973030;28;20177;-82
2022/01/24 05:43:53;;;;;;;25.63;14.03;;;7.20;99.90;;;;;;4972845;28;20363;-82
2022/01/24 05:46:22;;;;;;;28.60;14.20;;;7.10;99.90;;;;;;4972506;28;20205;-82
2022/01/24 05:48:47;;;;;;;24.83;14.40;;;7.20;99.90;;;;;;4972850;28;20191;-82
2022/01/24 05:51:14;;;;;;;25.37;13.63;;;7.20;99.90;;;;;;4972927;28;20184;-82
2022/01/24 05:53:40;;;;;;;25.67;14.37;;;7.30;99.90;;;;;;4973037;28;20722;-82
2022/01/24 05:56:07;;;;;;;23.73;13.23;;;7.30;99.90;;;;;;4972776;28;20286;-82
2022/01/24 05:58:32;;;;;;;25.43;14.13;;;7.20;99.90;;;;;;4974126;28;20176;-83
2022/01/24 06:00:59;;;;;;;24.10;13.40;;;7.20;99.90;;;;;;4972740;28;20196;-82
2022/01/24 06:03:27;;;;;;;22.17;13.57;;;7.30;99.90;;;;;;4972784;28;20191;-82
2022/01/24 06:05:54;;;;;;;24.93;14.20;;;7.40;99.90;;;;;;4972917;28;20705;-82
2022/01/24 06:08:20;;;;;;;25.53;13.87;;;7.50;99.90;;;;;;4972861;28;20188;-82
2022/01/24 06:10:48;;;;;;;24.70;13.63;;;7.30;99.90;;;;;;4971105;28;20242;-82
2022/01/24 06:13:14;;;;;;;23.53;13.57;;;7.30;99.90;;;;;;4975731;28;20188;-82
2022/01/24 06:15:42;;;;;;;26.00;14.67;;;7.20;99.90;;;;;;4979532;28;20657;-81
2022/01/24 06:18:07;;;;;;;23.57;14.13;;;7.10;99.90;;;;;;4972979;28;20187;-81
2022/01/24 06:20:33;;;;;;;24.53;14.43;;;7.20;99.90;;;;;;4971646;28;20206;-80
2022/01/24 06:22:59;;;;;;;24.83;13.80;;;7.20;99.90;;;;;;4971029;28;20642;-81
2022/01/24 06:25:25;;;;;;;24.73;13.63;;;7.10;99.90;;;;;;4986306;28;20207;-81
2022/01/24 06:27:51;;;;;;;25.33;14.10;;;7.10;99.90;;;;;;4991700;28;20247;-81
2022/01/24 06:30:17;;;;;;;24.87;14.30;;;7.10;99.90;;;;;;4994127;28;20644;-81
2022/01/24 06:32:43;;;;;;;26.03;14.57;;;7.20;99.90;;;;;;4994276;28;20186;-81
2022/01/24 06:35:11;;;;;;;26.40;14.50;;;7.10;99.90;;;;;;4994670;28;20208;-81
2022/01/24 06:37:38;;;;;;;25.73;13.90;;;7.20;99.90;;;;;;4983891;28;20546;-81
2022/01/24 06:40:06;;;;;;;25.73;14.43;;;7.30;99.90;;;;;;4980696;28;20266;-81
2022/01/24 06:42:33;;;;;;;24.43;13.27;;;7.30;99.90;;;;;;4982905;28;20189;-83
2022/01/24 06:44:58;;;;;;;23.90;13.53;;;7.20;99.90;;;;;;4975033;28;20747;-82
2022/01/24 07:34:54;;;;;;;;;;;;;;;;;;;;;
2022/01/24 11:43:37;;;;;;;21.97;13.87;;;18.20;88.30;;;;;;5135388;23;20694;-84
2022/01/24 11:46:24;;;;;;;19.30;13.60;;;18.40;88.10;;;;;;4939708;29;20261;-83
2022/01/24 11:49:03;;;;;;;20.53;13.57;;;18.80;86.50;;;;;;4939133;29;20274;-84
2022/01/24 11:51:31;;;;;;;18.77;12.83;;;18.40;86.40;;;;;;4939785;29;20563;-84
2022/01/24 11:53:57;;;;;;;20.87;13.37;;;18.80;85.70;;;;;;4939635;29;20267;-84
2022/01/24 11:56:27;;;;;;;23.87;14.13;;;19.20;84.00;;;;;;4956751;29;20216;-84
2022/01/24 11:59:22;;;;;;;21.00;12.97;;;19.10;84.20;;;;;;4939299;29;20206;-86
2022/01/24 12:02:09;;;;;;;19.20;12.93;;;19.20;83.40;;;;;;4940055;29;20182;-85
2022/01/24 14:06:14;;;;;;;22.40;12.43;;;12.00;92.20;;;;;;5176765;23;20231;-89
2022/01/24 14:08:41;;;;;;;23.57;12.67;;;11.90;92.70;;;;;;4938324;29;20263;-89
2022/01/24 14:11:13;;;;;;;18.37;11.07;;;12.00;92.70;;;;;;4938561;29;20286;-88
2022/01/24 18:08:09;;;;;;;;;;;;;;;;;;;;;
2022/01/24 18:14:42;;;;;;;;;;;;;;;;;;;;;
2022/01/24 18:23:47;;;;;;;36.20;18.37;;;7.20;99.90;;;;;;4846289;29;20197;-93
2022/01/24 18:26:27;;;;;;;38.27;18.37;;;7.10;99.90;;;;;;4942735;29;20217;-94
2022/01/24 18:29:05;;;;;;;;;;;;;;;;;;;;;
2022/01/24 18:31:44;;;;;;;;;;;;;;;;;;;;;
2022/01/24 18:34:15;;;;;;;38.87;19.10;;;6.90;99.90;;;;;;4958940;29;20174;-92
2022/01/24 18:36:53;;;;;;;;;;;;;;;;;;;;;
2022/01/24 18:39:31;;;;;;;32.50;16.33;;;6.90;99.90;;;;;;4959783;29;20176;-92
2022/01/24 18:42:19;;;;;;;38.63;17.57;;;7.00;99.90;;;;;;4942304;29;20213;-93
2022/01/24 18:44:57;;;;;;;;;;;;;;;;;;;;;
2022/01/24 18:47:43;;;;;;;41.40;19.23;;;6.80;99.90;;;;;;4958893;29;20173;-93
2022/01/24 18:50:21;;;;;;;40.13;20.13;;;6.80;99.90;;;;;;4940978;29;20200;-93
2022/01/24 18:52:54;;;;;;;40.50;20.50;;;6.70;99.90;;;;;;4941710;29;20189;-92
2022/01/24 18:55:29;;;;;;;38.70;19.90;;;6.60;99.90;;;;;;4941304;29;20188;-93
2022/01/24 18:58:17;;;;;;;43.30;19.70;;;6.60;99.90;;;;;;4941229;29;20315;-93
2022/01/24 19:00:48;;;;;;;40.57;20.00;;;6.60;99.90;;;;;;4942541;29;20638;-92
2022/01/24 19:03:26;;;;;;;40.47;20.50;;;6.60;99.90;;;;;;4941032;29;20196;-93
2022/01/24 19:06:03;;;;;;;39.30;19.07;;;6.60;99.90;;;;;;4941260;29;20217;-92
2022/01/24 19:08:39;;;;;;;;;;;;;;;;;;;;;
2022/01/24 19:11:07;;;;;;;45.70;21.10;;;6.30;99.90;;;;;;4958361;29;20189;-92
2022/01/24 19:13:36;;;;;;;38.43;19.47;;;6.20;99.90;;;;;;4943421;29;20269;-92
2022/01/24 19:16:04;;;;;;;43.27;21.20;;;6.10;99.90;;;;;;4958378;29;20192;-92
2022/01/24 19:18:57;;;;;;;41.57;21.27;;;6.30;99.90;;;;;;4939864;28;20205;-93
2022/01/24 19:24:14;;;;;;;44.37;20.90;;;6.40;99.90;;;;;;4957937;28;20197;-92
2022/01/24 19:26:45;;;;;;;43.50;21.70;;;6.30;99.90;;;;;;4941007;28;20255;-93
2022/01/24 19:29:14;;;;;;;43.13;20.27;;;6.10;99.90;;;;;;4941252;29;20643;-92
2022/01/24 19:31:50;;;;;;;43.10;21.33;;;6.10;99.90;;;;;;4940440;29;20217;-92
2022/01/24 19:34:21;;;;;;;41.97;21.33;;;6.00;99.90;;;;;;4950045;28;20692;-92
2022/01/24 19:36:50;;;;;;;43.50;22.43;;;5.90;99.90;;;;;;4958863;28;20195;-93
2022/01/24 19:39:16;;;;;;;46.13;23.90;;;5.80;99.90;;;;;;4958657;28;20630;-92
2022/01/24 19:42:03;;;;;;;;;;;;;;;;;;;;;
2022/01/24 19:44:39;;;;;;;44.83;22.00;;;5.80;99.90;;;;;;4975856;28;20211;-93
2022/01/24 19:47:08;;;;;;;42.67;22.37;;;5.80;99.90;;;;;;4959696;28;20273;-92
2022/01/24 19:49:46;;;;;;;42.23;21.57;;;5.80;99.90;;;;;;4959848;28;20224;-92
2022/01/24 19:52:17;;;;;;;45.93;22.67;;;5.70;99.90;;;;;;4959893;28;20644;-92
2022/01/24 19:55:05;;;;;;;45.27;23.77;;;5.60;99.90;;;;;;4959656;28;20179;-93
2022/01/24 19:57:50;;;;;;;;;;;;;;;;;;;;;
2022/01/24 20:00:25;;;;;;;51.30;25.20;;;5.50;99.90;;;;;;4976702;28;20176;-93
2022/01/24 20:02:56;;;;;;;47.60;24.20;;;5.50;99.90;;;;;;4959635;28;20195;-93
2022/01/24 20:05:37;;;;;;;48.67;23.17;;;5.50;99.90;;;;;;4959167;28;20230;-92
2022/01/24 20:08:08;;;;;;;46.23;25.20;;;5.50;99.90;;;;;;4959690;28;20194;-93
2022/01/24 20:10:40;;;;;;;47.33;24.27;;;5.50;99.90;;;;;;4958898;28;20630;-93
2022/01/24 20:13:16;;;;;;;49.03;25.77;;;5.50;99.90;;;;;;4959869;28;20266;-93
2022/01/24 20:15:45;;;;;;;49.07;26.03;;;5.50;99.90;;;;;;4959205;28;20178;-92
2022/01/24 20:18:13;;;;;;;51.23;26.93;;;5.50;99.90;;;;;;4959043;28;20569;-93
2022/01/24 20:20:52;;;;;;;49.30;26.30;;;5.60;99.90;;;;;;4943299;28;20191;-93
2022/01/24 20:23:25;;;;;;;48.77;26.77;;;5.50;99.90;;;;;;4959158;28;20193;-93
2022/01/24 20:26:07;;;;;;;;;;;;;;;;;;;;;
2022/01/24 20:28:40;;;;;;;51.40;26.37;;;5.40;99.90;;;;;;4978457;28;20170;-92
2022/01/24 20:31:09;;;;;;;47.83;26.70;;;5.30;99.90;;;;;;4963261;28;20206;-92
2022/01/24 20:33:48;;;;;;;;;;;;;;;;;;;;;
2022/01/24 20:36:36;;;;;;;55.10;26.27;;;5.20;99.90;;;;;;4976067;28;20183;-93
2022/01/24 20:39:10;;;;;;;49.10;25.03;;;5.20;99.90;;;;;;4959698;28;20635;-92
2022/01/24 20:41:52;;;;;;;55.10;26.93;;;5.10;99.90;;;;;;4959131;28;20187;-93
2022/01/24 20:44:21;;;;;;;51.83;26.53;;;5.00;99.90;;;;;;4959074;28;20184;-93
2022/01/24 20:46:51;;;;;;;49.80;27.37;;;5.00;99.90;;;;;;4959323;28;20183;-92
2022/01/24 20:49:37;;;;;;;55.40;27.03;;;5.20;99.90;;;;;;4959166;28;20214;-93
2022/01/24 20:52:15;;;;;;;51.27;27.23;;;5.10;99.90;;;;;;4959365;28;20281;-93
2022/01/24 20:55:09;;;;;;;60.20;28.70;;;5.10;99.90;;;;;;4964408;28;20182;-93
2022/01/24 20:57:55;;;;;;;54.53;26.27;;;5.00;99.90;;;;;;4945193;28;20190;-94
2022/01/24 21:00:38;;;;;;;;;;;;;;;;;;;;;
2022/01/24 21:03:31;;;;;;;53.87;26.87;;;4.90;99.90;;;;;;4976709;28;20190;-93
2022/01/24 21:06:10;;;;;;;;;;;;;;;;;;;;;
2022/01/24 21:08:40;;;;;;;54.63;27.10;;;4.90;99.90;;;;;;4974567;28;20167;-93
2022/01/24 21:11:13;;;;;;;54.53;27.57;;;4.90;99.90;;;;;;4942486;28;20190;-90
2022/01/24 21:16:29;;;;;;;52.80;26.97;;;4.90;99.90;;;;;;4956940;28;20643;-93
2022/01/24 21:19:07;;;;;;;51.43;26.87;;;4.80;99.90;;;;;;4955916;28;20186;-93
2022/01/24 21:21:50;;;;;;;;;;;;;;;;;;;;;
2022/01/24 21:24:25;;;;;;;55.70;28.20;;;4.80;99.90;;;;;;4955593;28;20274;-93
2022/01/24 21:27:13;;;;;;;;;;;;;;;;;;;;;
2022/01/24 21:29:45;;;;;;;56.97;27.70;;;4.90;99.90;;;;;;4962651;28;20175;-91
2022/01/24 21:32:35;;;;;;;;;;;;;;;;;;;;;
2022/01/24 21:35:24;;;;;;;53.47;29.33;;;4.90;99.90;;;;;;4978475;28;20266;-93
2022/01/24 21:38:11;;;;;;;;;;;;;;;;;;;;;
2022/01/24 21:40:44;;;;;;;55.17;27.23;;;4.90;99.90;;;;;;4970949;28;20269;-92
2022/01/24 21:43:17;;;;;;;58.33;29.30;;;4.80;99.90;;;;;;4959381;28;20281;-93
2022/01/24 21:45:49;;;;;;;56.20;27.83;;;4.70;99.90;;;;;;4959176;28;20565;-92
2022/01/24 21:48:20;;;;;;;50.13;26.60;;;4.70;99.90;;;;;;4958745;28;20610;-92
2022/01/24 21:50:55;;;;;;;57.63;28.70;;;4.60;99.90;;;;;;4959083;28;20183;-92
2022/01/24 21:53:29;;;;;;;54.03;28.63;;;4.60;99.90;;;;;;4959720;28;20171;-92
2022/01/24 23:50:30;;;;;;;66.43;35.17;;;3.80;99.90;;;;;;5657022;23;20239;-85
2022/01/24 23:52:56;;;;;;;66.37;35.10;;;3.70;99.90;;;;;;4989645;28;20193;-85
2022/01/24 23:55:21;;;;;;;70.70;36.00;;;3.60;99.90;;;;;;4988295;28;20186;-85
2022/01/24 23:57:51;;;;;;;67.70;34.87;;;3.60;99.90;;;;;;4994529;28;20182;-85
